Syracuse, NY

12:20 PM EST on December 07, 2019 (GMT -0500)
Syracuse Hancock International | | Change Station

Elev 420 ft 43.11 °N, 76.11 °W | Updated 26 minutes ago

Light Snow
Light Snow
27 °F
Feels Like 15 °F
N
15
Wind Variable Wind from West

Today
High -- | Low -- °F
--% Chance of Precip.
Yesterday
High -- | Low -- °F
Precip. -- in
Pressure 30.41 in
Visibility 9.0 miles
Clouds Scattered Clouds 2700 ft
Mostly Cloudy 3500 ft
Overcast 4200 ft
Windchill 15 °F
Dew Point 17 °F
Humidity 66%
Rainfall 0.02 in
Snow Depth Not available.
7:22 AM 4:29 PM
Waxing Gibbous, 80% visible
METAR KSYR 071654Z 28013KT 9SM -SN SCT027 BKN035 OVC042 M03/M08 A3040 RMK AO2 SLP296 PCPN VRY LGT P0000 T10281083
Pressure 30.41 in
Visibility 9.0 miles
Clouds Scattered Clouds 2700 ft
Mostly Cloudy 3500 ft
Overcast 4200 ft
Windchill 15 °F
Dew Point 17 °F
Humidity 66%
Rainfall 0.02 in
Snow Depth Not available.
7:22 AM 4:29 PM
Waxing Gibbous, 80% visible
METAR KSYR 071654Z 28013KT 9SM -SN SCT027 BKN035 OVC042 M03/M08 A3040 RMK AO2 SLP296 PCPN VRY LGT P0000 T10281083

Get Severe Weather Alerts

Thanks for signing up!

Be on the lookout for a verification email in your inbox.

You'll start receiving the daily forecast at 6 AM.

×

10-Day Weather Forecast

Almanac

Astronomy

Dec. 07, 2019 Rise Set
Actual Time
Civil Twilight
Nautical Twilight
Astronomical Twilight
Moon
Length of Visible Light
Length of Day
Tomorrow will be .
, % of the Moon is Illuminated

Today's Extremes

State Highs State Lows

Community

WunderPhotos

Category 6

Welcome to Category 6. This is the collective home for Weather Underground's featured writeups by Dr. Jeff Masters (right), Bob Henson (left), Chris Burt, and other regular contributors.

Nearby

Air Quality

  Air Quality AQ Index Pollutant
Not available.

Snow Depth

Station Depth Elevation

Earthquake Activity

City Distance Mag. Time & Date
Minimum magnitude displayed is 2.5.

Coastal Water Temperatures

Place Temperature

Stations

Nearby Weather Stations

Station Location Temp. Windchill Dew Point Humidity Wind Precip. Elev Updated Type
                   

Watches & Warnings

There are currently no watches in effect.